createdAt,value
2023-03-16T00:00:13.922Z,-2.90
2023-03-16T00:02:41.943Z,-3.08
2023-03-16T00:05:10.674Z,-3.25
2023-03-16T00:07:37.254Z,-3.26
2023-03-16T00:10:04.103Z,-3.26
2023-03-16T00:12:34.533Z,-3.09
2023-03-16T00:15:01.876Z,-3.02
2023-03-16T00:17:28.383Z,-2.99
2023-03-16T00:19:57.100Z,-3.06
2023-03-16T00:22:26.440Z,-3.21
2023-03-16T00:24:53.459Z,-3.19
2023-03-16T00:27:22.821Z,-3.17
2023-03-16T00:29:55.819Z,-3.17
2023-03-16T00:32:28.622Z,-3.11
2023-03-16T00:34:55.820Z,-3.18
2023-03-16T00:37:23.724Z,-3.12
2023-03-16T00:39:51.386Z,-3.15
2023-03-16T00:42:19.714Z,-3.24
2023-03-16T00:44:46.463Z,-3.28
2023-03-16T00:47:14.455Z,-3.26
2023-03-16T00:49:43.322Z,-3.30
2023-03-16T00:52:14.592Z,-3.28
2023-03-16T00:54:46.195Z,-3.33
2023-03-16T00:57:15.137Z,-3.29
2023-03-16T00:59:42.215Z,-3.26
2023-03-16T01:02:09.702Z,-3.29
2023-03-16T01:04:37.004Z,-3.42
2023-03-16T01:07:04.972Z,-3.58
2023-03-16T01:09:36.717Z,-3.68
2023-03-16T01:12:06.128Z,-3.76
2023-03-16T01:14:34.845Z,-3.71
2023-03-16T01:17:02.561Z,-3.63
2023-03-16T01:19:29.911Z,-3.56
2023-03-16T01:21:56.384Z,-3.55
2023-03-16T01:24:24.323Z,-3.55
2023-03-16T01:26:50.786Z,-3.59
2023-03-16T01:29:17.205Z,-3.48
2023-03-16T01:31:43.679Z,-3.49
2023-03-16T01:34:16.480Z,-3.46
2023-03-16T01:36:46.338Z,-3.47
2023-03-16T01:39:14.445Z,-3.42
2023-03-16T01:41:41.919Z,-3.44
2023-03-16T01:44:18.012Z,-3.63
2023-03-16T01:46:44.489Z,-3.61
2023-03-16T01:49:21.279Z,-3.62
2023-03-16T01:51:53.031Z,-3.61
2023-03-16T01:54:28.445Z,-3.60
2023-03-16T01:57:02.677Z,-3.62
2023-03-16T01:59:34.772Z,-3.63
2023-03-16T02:02:02.196Z,-3.72
2023-03-16T02:04:44.563Z,-3.71
2023-03-16T02:07:13.129Z,-3.83
2023-03-16T02:09:44.051Z,-3.73
2023-03-16T02:12:17.913Z,-3.81
2023-03-16T02:14:46.135Z,-3.70
2023-03-16T02:17:15.212Z,-3.55
2023-03-16T02:20:09.122Z,-3.53
2023-03-16T02:22:44.245Z,-3.63
2023-03-16T02:25:12.821Z,-3.73
2023-03-16T02:27:42.425Z,-3.80
2023-03-16T02:30:13.110Z,-3.86
2023-03-16T02:32:40.590Z,-3.98
2023-03-16T02:35:09.814Z,-3.95
2023-03-16T02:37:36.388Z,-3.94
2023-03-16T02:40:16.297Z,-3.85
2023-03-16T02:42:42.994Z,-3.90
2023-03-16T02:45:10.588Z,-3.83
2023-03-16T02:47:42.713Z,-3.85
2023-03-16T02:50:11.454Z,-3.80
2023-03-16T02:52:38.807Z,-3.75
2023-03-16T02:55:07.113Z,-3.91
2023-03-16T02:57:33.664Z,-3.82
2023-03-16T03:00:00.170Z,-3.81
2023-03-16T03:02:27.341Z,-3.78
2023-03-16T03:04:54.519Z,-3.75
2023-03-16T03:07:21.383Z,-3.81
2023-03-16T03:09:47.845Z,-3.84
2023-03-16T03:12:14.525Z,-3.79
2023-03-16T03:14:41.022Z,-3.89
2023-03-16T03:17:08.705Z,-3.81
2023-03-16T03:19:36.984Z,-3.62
2023-03-16T03:22:06.346Z,-3.66
2023-03-16T03:24:34.084Z,-3.53
2023-03-16T03:27:04.002Z,-3.66
2023-03-16T03:29:34.591Z,-3.75
2023-03-16T03:32:04.788Z,-3.77
2023-03-16T03:34:31.593Z,-3.78
2023-03-16T03:37:01.585Z,-3.74
2023-03-16T03:39:28.113Z,-3.64
2023-03-16T03:41:55.349Z,-3.53
2023-03-16T03:44:23.250Z,-3.48
2023-03-16T03:46:51.625Z,-3.39
2023-03-16T03:49:18.154Z,-3.52
2023-03-16T03:51:44.756Z,-3.65
2023-03-16T03:54:11.129Z,-3.77
2023-03-16T03:56:37.620Z,-3.86
2023-03-16T03:59:04.055Z,-3.90
2023-03-16T04:01:30.714Z,-3.81
2023-03-16T04:03:57.253Z,-3.75
2023-03-16T04:06:23.693Z,-3.82
2023-03-16T04:08:51.174Z,-4.01
2023-03-16T04:11:17.558Z,-3.98
2023-03-16T04:13:43.944Z,-3.95
2023-03-16T04:16:10.359Z,-3.76
2023-03-16T04:18:39.778Z,-3.79
2023-03-16T04:21:07.757Z,-3.78
2023-03-16T04:23:34.771Z,-3.82
2023-03-16T04:26:02.044Z,-3.96
2023-03-16T04:28:28.545Z,-3.76
2023-03-16T04:30:55.334Z,-3.77
2023-03-16T04:33:22.644Z,-3.75
2023-03-16T04:35:49.806Z,-3.73
2023-03-16T04:38:16.298Z,-3.87
2023-03-16T04:40:42.757Z,-3.89
2023-03-16T04:43:09.186Z,-3.93
2023-03-16T04:45:35.594Z,-3.89
2023-03-16T04:48:01.992Z,-3.95
2023-03-16T04:50:28.603Z,-3.73
2023-03-16T04:52:55.176Z,-3.87
2023-03-16T04:55:22.901Z,-3.69
2023-03-16T04:57:50.572Z,-3.75
2023-03-16T05:00:20.458Z,-4.01
2023-03-16T05:02:48.371Z,-3.97
2023-03-16T05:05:15.353Z,-4.07
2023-03-16T05:07:43.000Z,-3.97
2023-03-16T05:10:14.066Z,-4.02
2023-03-16T05:12:40.597Z,-3.91
2023-03-16T05:15:08.576Z,-3.94
2023-03-16T05:17:35.469Z,-3.76
2023-03-16T05:20:02.135Z,-3.83
2023-03-16T05:22:28.609Z,-3.79
2023-03-16T05:24:55.115Z,-3.91
2023-03-16T05:27:21.627Z,-3.58
2023-03-16T05:29:48.111Z,-3.71
2023-03-16T05:32:14.599Z,-3.76
2023-03-16T05:34:43.245Z,-3.51
2023-03-16T05:37:10.277Z,-3.60
2023-03-16T05:39:36.876Z,-3.67
2023-03-16T05:42:03.772Z,-3.57
2023-03-16T05:44:30.596Z,-3.62
2023-03-16T05:46:57.235Z,-3.68
2023-03-16T05:49:23.693Z,-3.60
2023-03-16T05:51:50.349Z,-3.46
2023-03-16T05:54:16.857Z,-3.30
2023-03-16T05:56:43.254Z,-3.07
2023-03-16T05:59:09.770Z,-2.33
2023-03-16T06:01:36.275Z,-1.04
2023-03-16T06:04:05.402Z,-0.19
2023-03-16T06:06:32.012Z,-0.03
2023-03-16T06:08:58.540Z,-0.18
2023-03-16T06:11:25.066Z,0.05
2023-03-16T06:13:51.633Z,0.44
2023-03-16T06:16:18.125Z,1.23
2023-03-16T06:18:44.755Z,0.72
2023-03-16T06:21:11.209Z,1.26
2023-03-16T06:23:37.691Z,1.83
2023-03-16T06:26:04.250Z,2.58
2023-03-16T06:28:31.084Z,3.77
2023-03-16T06:30:58.452Z,4.72
2023-03-16T06:33:25.146Z,5.27
2023-03-16T06:35:51.809Z,5.91
2023-03-16T06:38:19.658Z,6.29
2023-03-16T06:40:46.286Z,5.73
2023-03-16T06:43:12.747Z,5.80
2023-03-16T06:45:39.172Z,6.76
2023-03-16T06:48:07.005Z,7.27
2023-03-16T06:50:33.423Z,7.82
2023-03-16T06:52:59.826Z,8.97
2023-03-16T06:55:26.407Z,9.74
2023-03-16T06:57:52.869Z,10.29
2023-03-16T07:00:19.741Z,10.38
2023-03-16T07:02:46.384Z,10.49
2023-03-16T07:05:15.668Z,10.74
2023-03-16T07:07:42.996Z,10.54
2023-03-16T07:10:15.258Z,10.85
2023-03-16T07:12:42.454Z,11.00
2023-03-16T07:15:09.820Z,10.68
2023-03-16T07:17:36.747Z,10.61
2023-03-16T07:20:10.604Z,10.04
2023-03-16T07:22:38.167Z,10.01
2023-03-16T07:25:06.032Z,10.35
2023-03-16T07:27:32.877Z,10.09
2023-03-16T07:30:00.390Z,9.10
2023-03-16T07:32:26.946Z,9.25
2023-03-16T07:34:53.669Z,8.96
2023-03-16T07:37:25.434Z,9.63
2023-03-16T07:39:52.438Z,9.76
2023-03-16T07:42:19.841Z,9.42
2023-03-16T07:44:46.365Z,8.04
2023-03-16T07:47:13.307Z,5.88
2023-03-16T07:49:41.618Z,6.15
2023-03-16T07:52:08.539Z,5.67
2023-03-16T07:54:35.099Z,5.71
2023-03-16T07:57:01.528Z,6.73
2023-03-16T07:59:28.009Z,5.84
2023-03-16T08:01:54.568Z,6.79
2023-03-16T08:04:22.210Z,6.90
2023-03-16T08:06:48.711Z,8.17
2023-03-16T08:09:15.301Z,9.20
2023-03-16T08:11:41.799Z,9.38
2023-03-16T08:14:08.693Z,9.18
2023-03-16T08:16:35.795Z,9.05
2023-03-16T08:19:02.555Z,6.80
2023-03-16T08:21:30.300Z,6.11
2023-03-16T08:23:56.799Z,5.69
2023-03-16T08:26:23.401Z,6.33
2023-03-16T08:28:52.024Z,6.57
2023-03-16T08:31:20.303Z,6.76
2023-03-16T08:33:48.409Z,7.24
2023-03-16T08:36:16.480Z,7.48
2023-03-16T08:38:45.385Z,7.69
2023-03-16T08:41:17.302Z,7.52
2023-03-16T08:43:44.812Z,7.56
2023-03-16T08:46:13.251Z,7.59
2023-03-16T08:48:41.657Z,7.84
2023-03-16T08:51:11.692Z,8.00
2023-03-16T08:53:38.182Z,8.85
2023-03-16T08:56:06.711Z,8.64
2023-03-16T08:58:34.455Z,9.35
2023-03-16T09:01:01.937Z,8.72
2023-03-16T09:03:28.710Z,9.37
2023-03-16T09:06:05.128Z,9.37
2023-03-16T09:08:31.944Z,9.05
2023-03-16T09:11:02.245Z,8.76
2023-03-16T09:13:28.874Z,8.69
2023-03-16T09:15:55.404Z,8.32
2023-03-16T09:18:23.390Z,8.45
2023-03-16T09:20:50.261Z,9.18
2023-03-16T09:23:16.748Z,8.85
2023-03-16T09:25:43.170Z,9.33
2023-03-16T09:28:09.810Z,9.35
2023-03-16T09:30:36.388Z,9.08
2023-03-16T09:33:04.227Z,9.05
2023-03-16T09:35:34.332Z,8.37
2023-03-16T09:38:06.770Z,8.56
2023-03-16T09:40:35.999Z,9.34
2023-03-16T09:43:33.475Z,10.04
2023-03-16T09:46:06.620Z,8.58
2023-03-16T09:48:35.853Z,9.21
2023-03-16T09:51:07.763Z,9.77
2023-03-16T09:53:37.416Z,9.09
2023-03-16T09:56:26.331Z,8.29
2023-03-16T09:58:52.860Z,8.48
2023-03-16T10:01:48.315Z,8.99
2023-03-16T10:04:24.974Z,9.67
2023-03-16T10:07:02.612Z,9.98
2023-03-16T10:09:47.666Z,9.67
2023-03-16T10:12:15.950Z,9.10
2023-03-16T10:14:52.511Z,9.56
2023-03-16T10:17:26.646Z,9.71
2023-03-16T10:19:57.998Z,9.35
2023-03-16T10:22:30.863Z,9.77
2023-03-16T10:25:06.739Z,9.45
2023-03-16T10:27:39.805Z,9.25
2023-03-16T10:30:27.864Z,8.20
2023-03-16T10:32:56.581Z,8.13
2023-03-16T10:35:46.070Z,7.98
2023-03-16T10:38:32.933Z,8.22
2023-03-16T10:41:00.754Z,8.47
2023-03-16T10:43:29.179Z,9.29
2023-03-16T10:46:02.230Z,8.74
2023-03-16T10:48:34.209Z,11.47
2023-03-16T10:51:07.030Z,11.80
2023-03-16T10:53:36.611Z,11.43
2023-03-16T10:56:19.947Z,13.33
2023-03-16T10:58:47.146Z,13.62
2023-03-16T11:01:28.914Z,13.14
2023-03-16T11:03:57.931Z,12.84
2023-03-16T11:06:30.622Z,14.12
2023-03-16T11:09:13.114Z,14.42
2023-03-16T11:11:39.829Z,15.34
2023-03-16T11:14:15.495Z,15.21
2023-03-16T11:16:42.627Z,13.87
2023-03-16T11:19:27.145Z,13.25
2023-03-16T11:22:01.335Z,12.46
2023-03-16T11:24:44.198Z,11.84
2023-03-16T11:27:31.359Z,9.98
2023-03-16T11:30:33.109Z,11.78
2023-03-16T11:33:00.633Z,11.17
2023-03-16T11:35:27.553Z,11.74
2023-03-16T11:38:06.547Z,10.73
2023-03-16T11:40:58.479Z,13.17
2023-03-16T11:43:52.373Z,12.68
2023-03-16T11:46:36.797Z,13.64
2023-03-16T11:49:28.116Z,13.68
2023-03-16T11:51:59.568Z,13.12
2023-03-16T11:55:17.899Z,12.08
2023-03-16T11:58:16.410Z,13.73
2023-03-16T12:00:52.750Z,11.33
2023-03-16T12:03:45.774Z,12.79
2023-03-16T12:06:24.612Z,13.33
2023-03-16T12:09:19.816Z,12.27
2023-03-16T12:11:58.380Z,12.63
2023-03-16T12:14:35.081Z,11.73
2023-03-16T12:17:15.785Z,11.19
2023-03-16T12:20:05.883Z,11.61
2023-03-16T12:22:42.708Z,11.45
2023-03-16T12:25:38.089Z,10.91
2023-03-16T12:28:11.288Z,10.07
2023-03-16T12:30:46.702Z,10.88
2023-03-16T12:33:18.886Z,9.89
2023-03-16T12:35:55.574Z,12.23
2023-03-16T12:38:34.155Z,14.28
2023-03-16T12:41:19.827Z,12.24
2023-03-16T12:44:04.658Z,13.30
2023-03-16T12:46:47.791Z,14.00
2023-03-16T12:49:15.161Z,14.15
2023-03-16T12:51:43.894Z,13.60
2023-03-16T12:54:22.452Z,13.02
2023-03-16T12:56:50.460Z,12.50
2023-03-16T12:59:20.092Z,11.02
2023-03-16T13:01:52.090Z,10.77
2023-03-16T13:04:23.461Z,10.22
2023-03-16T13:07:05.034Z,10.77
2023-03-16T13:09:34.345Z,10.35
2023-03-16T13:12:05.045Z,10.92
2023-03-16T13:14:44.150Z,11.13
2023-03-16T13:17:16.824Z,10.99
2023-03-16T13:20:30.900Z,11.16
2023-03-16T13:23:23.090Z,11.46
2023-03-16T13:26:05.617Z,13.22
2023-03-16T13:28:36.475Z,13.08
2023-03-16T13:31:04.850Z,12.59
2023-03-16T13:33:36.717Z,12.07
2023-03-16T13:36:06.220Z,11.43
2023-03-16T13:38:32.809Z,12.87
2023-03-16T13:41:09.338Z,14.33
2023-03-16T13:43:39.763Z,13.02
2023-03-16T13:46:21.275Z,12.42
2023-03-16T13:48:48.593Z,12.47
2023-03-16T13:51:20.733Z,12.61
2023-03-16T13:53:48.229Z,11.10
2023-03-16T13:56:28.767Z,10.51
2023-03-16T13:58:57.874Z,11.38
2023-03-16T14:01:31.107Z,11.14
2023-03-16T14:04:08.439Z,11.01
2023-03-16T14:06:35.770Z,10.48
2023-03-16T14:09:05.762Z,10.51
2023-03-16T14:11:32.288Z,10.63
2023-03-16T14:14:00.447Z,9.88
2023-03-16T14:16:29.712Z,9.53
2023-03-16T14:19:02.616Z,9.47
2023-03-16T14:21:32.102Z,9.39
2023-03-16T14:24:02.030Z,9.57
2023-03-16T14:26:41.030Z,9.53
2023-03-16T14:29:28.296Z,9.98
2023-03-16T14:31:55.453Z,10.04
2023-03-16T14:34:39.450Z,10.00
2023-03-16T14:37:14.827Z,9.70
2023-03-16T14:39:42.200Z,9.52
2023-03-16T14:42:31.014Z,9.89
2023-03-16T14:45:02.399Z,10.18
2023-03-16T14:47:32.063Z,9.47
2023-03-16T14:50:06.723Z,10.13
2023-03-16T14:52:34.108Z,10.36
2023-03-16T14:55:03.581Z,10.23
2023-03-16T14:57:30.344Z,9.87
2023-03-16T14:59:57.302Z,9.61
2023-03-16T15:02:28.920Z,9.35
2023-03-16T15:04:56.686Z,9.21
2023-03-16T15:07:32.567Z,8.96
2023-03-16T15:10:15.316Z,9.47
2023-03-16T15:12:50.277Z,9.41
2023-03-16T15:15:23.530Z,9.23
2023-03-16T15:17:52.540Z,9.39
2023-03-16T15:20:25.551Z,9.56
2023-03-16T15:22:53.474Z,9.42
2023-03-16T15:25:23.021Z,9.30
2023-03-16T15:27:50.530Z,8.95
2023-03-16T15:30:23.142Z,9.07
2023-03-16T15:32:49.845Z,9.34
2023-03-16T15:35:16.746Z,8.93
2023-03-16T15:37:43.595Z,8.86
2023-03-16T15:40:17.894Z,8.81
2023-03-16T15:42:46.817Z,8.93
2023-03-16T15:45:17.615Z,8.83
2023-03-16T15:47:45.053Z,8.85
2023-03-16T15:50:13.139Z,9.31
2023-03-16T15:52:42.135Z,9.19
2023-03-16T15:55:20.887Z,9.07
2023-03-16T15:57:51.360Z,9.06
2023-03-16T16:00:34.815Z,9.32
2023-03-16T16:03:02.922Z,9.29
2023-03-16T16:05:31.007Z,9.28
2023-03-16T16:07:58.780Z,9.39
2023-03-16T16:10:27.092Z,8.95
2023-03-16T16:12:55.764Z,9.05
2023-03-16T16:15:29.736Z,9.06
2023-03-16T16:18:19.652Z,8.86
2023-03-16T16:20:44.542Z,8.68
2023-03-16T16:23:11.082Z,8.76
2023-03-16T16:25:41.672Z,8.58
2023-03-16T16:28:20.144Z,8.56
2023-03-16T16:30:47.709Z,8.54
2023-03-16T16:33:32.207Z,8.46
2023-03-16T16:36:01.436Z,8.39
2023-03-16T16:38:28.593Z,8.63
2023-03-16T16:40:58.489Z,8.71
2023-03-16T16:43:33.672Z,8.68
2023-03-16T16:46:02.045Z,8.51
2023-03-16T16:48:36.745Z,8.39
2023-03-16T16:51:07.014Z,8.08
2023-03-16T16:53:33.659Z,8.16
2023-03-16T16:56:00.435Z,8.36
2023-03-16T16:58:27.201Z,8.32
2023-03-16T17:00:58.997Z,8.14
2023-03-16T17:03:29.767Z,7.84
2023-03-16T17:05:58.182Z,7.96
2023-03-16T17:08:25.411Z,7.96
2023-03-16T17:10:53.306Z,7.66
2023-03-16T17:13:32.202Z,7.67
2023-03-16T17:15:58.813Z,7.82
2023-03-16T17:18:25.819Z,7.71
2023-03-16T17:20:52.693Z,7.70
2023-03-16T17:23:34.450Z,7.73
2023-03-16T17:26:09.821Z,7.62
2023-03-16T17:28:40.367Z,7.61
2023-03-16T17:31:06.888Z,7.61
2023-03-16T17:33:33.861Z,7.51
2023-03-16T17:36:02.370Z,7.55
2023-03-16T17:38:28.830Z,7.36
2023-03-16T17:40:55.435Z,7.46
2023-03-16T17:43:23.223Z,7.54
2023-03-16T17:45:52.286Z,7.26
2023-03-16T17:48:24.115Z,7.22
2023-03-16T17:50:51.623Z,7.43
2023-03-16T17:53:19.662Z,7.25
2023-03-16T17:55:47.261Z,7.26
2023-03-16T17:58:25.821Z,7.36
2023-03-16T18:00:54.482Z,7.33
2023-03-16T18:03:23.929Z,7.39
2023-03-16T18:05:51.005Z,7.25
2023-03-16T18:08:21.707Z,7.24
2023-03-16T18:10:50.968Z,7.24
2023-03-16T18:13:22.549Z,7.28
2023-03-16T18:15:50.552Z,7.23
2023-03-16T18:18:21.300Z,7.14
2023-03-16T18:20:53.043Z,7.20
2023-03-16T18:23:22.568Z,7.36
2023-03-16T18:25:52.526Z,7.08
2023-03-16T18:28:20.558Z,7.32
2023-03-16T18:30:51.962Z,7.17
2023-03-16T18:33:25.112Z,7.17
2023-03-16T18:35:53.911Z,7.06
2023-03-16T18:38:39.279Z,7.15
2023-03-16T18:41:24.059Z,7.06
2023-03-16T18:43:52.478Z,7.12
2023-03-16T18:46:38.362Z,7.02
2023-03-16T18:49:12.252Z,6.86
2023-03-16T18:51:38.949Z,6.98
2023-03-16T18:54:24.381Z,6.87
2023-03-16T18:56:52.785Z,6.91
2023-03-16T18:59:20.506Z,6.95
2023-03-16T19:01:47.802Z,6.87
2023-03-16T19:04:21.670Z,6.77
2023-03-16T19:06:49.329Z,6.90
2023-03-16T19:09:21.314Z,6.87
2023-03-16T19:11:48.937Z,6.80
2023-03-16T19:14:18.465Z,7.01
2023-03-16T19:16:45.283Z,6.92
2023-03-16T19:19:12.211Z,7.00
2023-03-16T19:21:39.483Z,7.02
2023-03-16T19:24:09.120Z,6.96
2023-03-16T19:26:39.000Z,7.05
2023-03-16T19:29:05.820Z,7.02
2023-03-16T19:31:35.527Z,7.04
2023-03-16T19:34:02.012Z,7.00
2023-03-16T19:36:30.461Z,7.16
2023-03-16T19:38:58.222Z,7.14
2023-03-16T19:41:27.913Z,7.14
2023-03-16T19:44:01.139Z,7.16
2023-03-16T19:46:28.458Z,6.90
2023-03-16T19:48:55.956Z,6.77
2023-03-16T19:51:25.314Z,6.75
2023-03-16T19:53:51.992Z,6.66
2023-03-16T19:56:21.431Z,6.89
2023-03-16T19:58:51.427Z,6.74
2023-03-16T20:01:19.217Z,6.55
2023-03-16T20:03:50.380Z,6.62
2023-03-16T20:06:20.385Z,6.70
2023-03-16T20:08:48.353Z,6.70
2023-03-16T20:11:24.909Z,6.79
2023-03-16T20:13:51.785Z,6.70
2023-03-16T20:16:25.723Z,6.72
2023-03-16T20:18:58.101Z,6.55
2023-03-16T20:21:24.630Z,6.40
2023-03-16T20:23:52.419Z,6.59
2023-03-16T20:26:22.386Z,6.32
2023-03-16T20:28:49.533Z,6.40
2023-03-16T20:31:34.636Z,6.33
2023-03-16T20:34:01.602Z,6.50
2023-03-16T20:36:28.132Z,6.38
2023-03-16T20:38:54.633Z,6.36
2023-03-16T20:41:32.773Z,6.35
2023-03-16T20:44:01.708Z,6.39
2023-03-16T20:46:30.998Z,6.27
2023-03-16T20:49:00.563Z,6.47
2023-03-16T20:51:28.720Z,6.71
2023-03-16T20:53:55.467Z,6.53
2023-03-16T20:56:24.150Z,6.57
2023-03-16T20:58:54.573Z,6.67
2023-03-16T21:01:22.623Z,6.56
2023-03-16T21:03:53.085Z,6.53
2023-03-16T21:06:25.998Z,6.52
2023-03-16T21:08:54.212Z,6.49
2023-03-16T21:11:35.198Z,6.46
2023-03-16T21:14:02.383Z,6.40
2023-03-16T21:16:30.117Z,6.31
2023-03-16T21:18:56.758Z,6.23
2023-03-16T21:21:23.835Z,6.09
2023-03-16T21:23:50.464Z,6.03
2023-03-16T21:26:23.598Z,6.19
2023-03-16T21:28:58.331Z,6.17
2023-03-16T21:31:26.236Z,6.09
2023-03-16T21:33:55.124Z,6.06
2023-03-16T21:36:26.538Z,6.27
2023-03-16T21:38:54.437Z,6.15
2023-03-16T21:41:21.476Z,5.98
2023-03-16T21:43:50.623Z,6.00
2023-03-16T21:46:20.150Z,6.05
2023-03-16T21:48:53.826Z,6.13
2023-03-16T21:51:29.044Z,6.06
2023-03-16T21:53:56.416Z,6.10
2023-03-16T21:56:25.899Z,6.15
2023-03-16T21:58:53.603Z,6.04
2023-03-16T22:01:31.644Z,5.76
2023-03-16T22:04:02.694Z,5.82
2023-03-16T22:06:29.482Z,5.83
2023-03-16T22:08:57.898Z,5.93
2023-03-16T22:11:29.672Z,5.67
2023-03-16T22:13:57.829Z,5.75
2023-03-16T22:16:27.899Z,5.75
2023-03-16T22:18:56.512Z,5.96
2023-03-16T22:21:34.253Z,5.92
2023-03-16T22:24:02.072Z,5.80
2023-03-16T22:26:29.591Z,5.76
2023-03-16T22:28:57.120Z,5.77
2023-03-16T22:31:43.994Z,5.70
2023-03-16T22:34:28.023Z,5.59
2023-03-16T22:36:55.716Z,5.72
2023-03-16T22:39:22.520Z,5.81
2023-03-16T22:41:48.921Z,5.71
2023-03-16T22:44:23.022Z,5.83
2023-03-16T22:46:50.700Z,5.90
2023-03-16T22:49:23.305Z,5.79
2023-03-16T22:51:52.693Z,5.73
2023-03-16T22:54:22.526Z,5.85
2023-03-16T22:56:49.143Z,5.82
2023-03-16T22:59:22.428Z,5.80
2023-03-16T23:01:50.328Z,5.74
2023-03-16T23:04:20.946Z,5.75
2023-03-16T23:06:50.122Z,5.84
2023-03-16T23:09:18.379Z,5.76
2023-03-16T23:11:46.732Z,5.64
2023-03-16T23:14:15.238Z,5.77
2023-03-16T23:16:41.967Z,5.62
2023-03-16T23:19:26.495Z,5.73
2023-03-16T23:21:55.214Z,5.70
2023-03-16T23:24:21.822Z,5.75
2023-03-16T23:26:49.747Z,5.77
2023-03-16T23:29:16.522Z,5.75
2023-03-16T23:31:42.974Z,5.85
2023-03-16T23:34:14.509Z,5.74
2023-03-16T23:36:41.073Z,5.74
2023-03-16T23:39:08.755Z,5.84
2023-03-16T23:41:35.880Z,5.77
2023-03-16T23:44:04.144Z,5.72
2023-03-16T23:46:30.987Z,5.76
2023-03-16T23:48:59.307Z,5.79
2023-03-16T23:51:33.209Z,5.87
2023-03-16T23:54:00.572Z,5.82
2023-03-16T23:56:27.301Z,5.87
2023-03-16T23:58:54.461Z,5.81
